createdAt,value
2019-03-29T00:00:34.966Z,1031.49
2019-03-29T00:01:34.987Z,1031.47
2019-03-29T00:02:35.012Z,1031.45
2019-03-29T00:03:35.215Z,1031.41
2019-03-29T00:04:35.052Z,1031.44
2019-03-29T00:05:35.075Z,1031.39
2019-03-29T00:06:35.102Z,1031.38
2019-03-29T00:07:39.918Z,1031.38
2019-03-29T00:08:35.974Z,1031.41
2019-03-29T00:09:35.165Z,1031.35
2019-03-29T00:10:35.188Z,1031.38
2019-03-29T00:11:35.218Z,1031.40
2019-03-29T00:12:35.234Z,1031.38
2019-03-29T00:13:35.263Z,1031.37
2019-03-29T00:14:35.281Z,1031.37
2019-03-29T00:15:35.309Z,1031.40
2019-03-29T00:16:35.327Z,1031.44
2019-03-29T00:17:35.367Z,1031.40
2019-03-29T00:18:36.122Z,1031.40
2019-03-29T00:19:35.401Z,1031.40
2019-03-29T00:20:35.415Z,1031.44
2019-03-29T00:21:35.445Z,1031.40
2019-03-29T00:22:35.479Z,1031.39
2019-03-29T00:23:35.487Z,1031.35
2019-03-29T00:24:35.511Z,1031.38
2019-03-29T00:25:35.536Z,1031.32
2019-03-29T00:26:35.559Z,1031.37
2019-03-29T00:27:35.581Z,1031.35
2019-03-29T00:28:36.891Z,1031.31
2019-03-29T00:29:35.635Z,1031.32
2019-03-29T00:30:35.649Z,1031.35
2019-03-29T00:31:35.671Z,1031.32
2019-03-29T00:32:35.697Z,1031.30
2019-03-29T00:33:35.717Z,1031.30
2019-03-29T00:34:35.746Z,1031.31
2019-03-29T00:35:35.770Z,1031.29
2019-03-29T00:36:35.789Z,1031.31
2019-03-29T00:37:35.827Z,1031.30
2019-03-29T00:38:35.838Z,1031.28
2019-03-29T00:39:35.862Z,1031.25
2019-03-29T00:40:35.879Z,1031.30
2019-03-29T00:41:35.909Z,1031.29
2019-03-29T00:42:35.929Z,1031.27
2019-03-29T00:43:35.949Z,1031.30
2019-03-29T00:44:35.973Z,1031.27
2019-03-29T00:45:36.002Z,1031.27
2019-03-29T00:46:36.021Z,1031.25
2019-03-29T00:47:36.043Z,1031.26
2019-03-29T00:48:36.148Z,1031.24
2019-03-29T00:49:36.123Z,1031.19
2019-03-29T00:50:36.115Z,1031.19
2019-03-29T00:51:36.137Z,1031.19
2019-03-29T00:52:36.161Z,1031.20
2019-03-29T00:53:36.192Z,1031.18
2019-03-29T00:54:36.199Z,1031.20
2019-03-29T00:55:36.228Z,1031.18
2019-03-29T00:56:36.251Z,1031.16
2019-03-29T00:57:36.274Z,1031.18
2019-03-29T00:58:36.303Z,1031.14
2019-03-29T00:59:36.326Z,1031.14
2019-03-29T01:00:36.341Z,1031.11
2019-03-29T01:01:36.369Z,1031.12
2019-03-29T01:02:36.386Z,1031.08
2019-03-29T01:03:37.114Z,1031.05
2019-03-29T01:04:36.436Z,1031.02
2019-03-29T01:05:36.458Z,1031.01
2019-03-29T01:06:36.483Z,1031.03
2019-03-29T01:07:36.503Z,1031.03
2019-03-29T01:08:37.322Z,1031.02
2019-03-29T01:09:36.567Z,1031.03
2019-03-29T01:10:36.577Z,1031.00
2019-03-29T01:11:36.597Z,1031.01
2019-03-29T01:12:36.618Z,1030.98
2019-03-29T01:13:36.637Z,1030.95
2019-03-29T01:14:36.665Z,1030.97
2019-03-29T01:15:36.687Z,1030.96
2019-03-29T01:16:36.715Z,1030.92
2019-03-29T01:17:36.731Z,1030.94
2019-03-29T01:18:37.888Z,1030.91
2019-03-29T01:19:36.778Z,1030.91
2019-03-29T01:20:36.799Z,1030.95
2019-03-29T01:21:36.831Z,1030.94
2019-03-29T01:22:36.849Z,1030.89
2019-03-29T01:23:36.878Z,1030.93
2019-03-29T01:24:36.923Z,1030.92
2019-03-29T01:25:36.915Z,1030.95
2019-03-29T01:26:36.938Z,1030.97
2019-03-29T01:27:36.971Z,1030.93
2019-03-29T01:28:36.983Z,1030.92
2019-03-29T01:29:37.019Z,1030.95
2019-03-29T01:30:37.056Z,1030.92
2019-03-29T01:31:37.053Z,1030.89
2019-03-29T01:32:37.076Z,1030.94
2019-03-29T01:33:37.117Z,1030.92
2019-03-29T01:34:37.129Z,1030.91
2019-03-29T01:35:37.144Z,1030.90
2019-03-29T01:36:37.190Z,1030.89
2019-03-29T01:37:37.205Z,1030.89
2019-03-29T01:38:37.213Z,1030.88
2019-03-29T01:39:37.240Z,1030.90
2019-03-29T01:40:37.275Z,1030.86
2019-03-29T01:41:37.312Z,1030.88
2019-03-29T01:42:37.315Z,1030.85
2019-03-29T01:43:37.333Z,1030.86
2019-03-29T01:44:37.354Z,1030.86
2019-03-29T01:45:37.375Z,1030.85
2019-03-29T01:46:38.095Z,1030.89
2019-03-29T01:47:37.438Z,1030.91
2019-03-29T01:48:37.453Z,1030.91
2019-03-29T01:49:37.520Z,1030.92
2019-03-29T01:50:37.500Z,1030.90
2019-03-29T01:51:37.509Z,1030.87
2019-03-29T01:52:37.557Z,1030.87
2019-03-29T01:53:38.009Z,1030.88
2019-03-29T01:54:37.578Z,1030.84
2019-03-29T01:55:37.607Z,1030.85
2019-03-29T01:56:37.626Z,1030.84
2019-03-29T01:57:37.645Z,1030.87
2019-03-29T01:58:37.663Z,1030.84
2019-03-29T01:59:37.703Z,1030.90
2019-03-29T02:00:37.718Z,1030.88
2019-03-29T02:01:37.739Z,1030.88
2019-03-29T02:02:37.767Z,1030.86
2019-03-29T02:03:37.787Z,1030.84
2019-03-29T02:04:37.812Z,1030.85
2019-03-29T02:05:37.845Z,1030.83
2019-03-29T02:06:37.863Z,1030.77
2019-03-29T02:07:38.234Z,1030.78
2019-03-29T02:08:38.161Z,1030.81
2019-03-29T02:09:37.920Z,1030.81
2019-03-29T02:10:37.950Z,1030.83
2019-03-29T02:11:37.994Z,1030.80
2019-03-29T02:12:37.994Z,1030.85
2019-03-29T02:13:38.010Z,1030.82
2019-03-29T02:14:38.036Z,1030.86
2019-03-29T02:15:38.164Z,1030.83
2019-03-29T02:16:38.079Z,1030.81
2019-03-29T02:17:38.106Z,1030.81
2019-03-29T02:18:38.242Z,1030.79
2019-03-29T02:19:38.157Z,1030.82
2019-03-29T02:20:38.171Z,1030.82
2019-03-29T02:21:38.198Z,1030.80
2019-03-29T02:22:38.218Z,1030.77
2019-03-29T02:23:38.245Z,1030.74
2019-03-29T02:24:38.259Z,1030.73
2019-03-29T02:25:38.296Z,1030.77
2019-03-29T02:26:38.313Z,1030.76
2019-03-29T02:27:38.343Z,1030.70
2019-03-29T02:28:38.366Z,1030.71
2019-03-29T02:29:38.381Z,1030.71
2019-03-29T02:30:38.398Z,1030.68
2019-03-29T02:31:42.164Z,1030.69
2019-03-29T02:32:38.457Z,1030.68
2019-03-29T02:33:38.471Z,1030.69
2019-03-29T02:34:38.493Z,1030.67
2019-03-29T02:35:39.029Z,1030.70
2019-03-29T02:36:38.546Z,1030.66
2019-03-29T02:37:38.566Z,1030.63
2019-03-29T02:38:54.269Z,1030.65
2019-03-29T02:39:38.612Z,1030.66
2019-03-29T02:40:38.642Z,1030.66
2019-03-29T02:41:38.657Z,1030.66
2019-03-29T02:42:38.676Z,1030.70
2019-03-29T02:43:38.971Z,1030.75
2019-03-29T02:44:38.728Z,1030.70
2019-03-29T02:45:38.741Z,1030.71
2019-03-29T02:46:38.784Z,1030.71
2019-03-29T02:47:38.788Z,1030.72
2019-03-29T02:48:38.813Z,1030.73
2019-03-29T02:49:40.353Z,1030.75
2019-03-29T02:50:38.854Z,1030.74
2019-03-29T02:51:38.886Z,1030.75
2019-03-29T02:52:38.906Z,1030.74
2019-03-29T02:53:38.924Z,1030.74
2019-03-29T02:54:38.958Z,1030.74
2019-03-29T02:55:38.984Z,1030.73
2019-03-29T02:56:38.997Z,1030.70
2019-03-29T02:57:39.015Z,1030.69
2019-03-29T02:58:39.035Z,1030.73
2019-03-29T02:59:39.065Z,1030.71
2019-03-29T03:00:39.082Z,1030.70
2019-03-29T03:01:39.118Z,1030.68
2019-03-29T03:02:39.137Z,1030.67
2019-03-29T03:03:39.152Z,1030.68
2019-03-29T03:04:39.181Z,1030.63
2019-03-29T03:05:39.198Z,1030.66
2019-03-29T03:06:39.226Z,1030.68
2019-03-29T03:07:39.239Z,1030.65
2019-03-29T03:08:39.268Z,1030.64
2019-03-29T03:09:39.305Z,1030.67
2019-03-29T03:10:39.315Z,1030.64
2019-03-29T03:11:39.330Z,1030.68
2019-03-29T03:12:39.364Z,1030.71
2019-03-29T03:13:39.383Z,1030.65
2019-03-29T03:14:39.404Z,1030.65
2019-03-29T03:15:39.426Z,1030.66
2019-03-29T03:16:39.447Z,1030.66
2019-03-29T03:17:39.471Z,1030.64
2019-03-29T03:19:39.516Z,1030.69
2019-03-29T03:20:39.535Z,1030.68
2019-03-29T03:21:39.572Z,1030.72
2019-03-29T03:22:39.585Z,1030.70
2019-03-29T03:23:39.610Z,1030.69
2019-03-29T03:24:39.635Z,1030.72
2019-03-29T03:25:39.648Z,1030.74
2019-03-29T03:26:39.669Z,1030.72
2019-03-29T03:27:39.700Z,1030.73
2019-03-29T03:28:39.725Z,1030.70
2019-03-29T03:29:39.757Z,1030.70
2019-03-29T03:30:39.768Z,1030.72
2019-03-29T03:31:39.786Z,1030.74
2019-03-29T03:32:39.812Z,1030.76
2019-03-29T03:33:39.837Z,1030.75
2019-03-29T03:34:39.857Z,1030.76
2019-03-29T03:35:39.874Z,1030.76
2019-03-29T03:36:39.901Z,1030.78
2019-03-29T03:37:39.920Z,1030.77
2019-03-29T03:38:39.948Z,1030.78
2019-03-29T03:39:39.971Z,1030.77
2019-03-29T03:40:39.990Z,1030.77
2019-03-29T03:41:40.016Z,1030.77
2019-03-29T03:42:40.038Z,1030.73
2019-03-29T03:43:40.080Z,1030.73
2019-03-29T03:44:40.077Z,1030.72
2019-03-29T03:45:40.113Z,1030.75
2019-03-29T03:46:40.133Z,1030.76
2019-03-29T03:47:40.159Z,1030.75
2019-03-29T03:48:40.173Z,1030.75
2019-03-29T03:49:40.203Z,1030.76
2019-03-29T03:50:40.222Z,1030.76
2019-03-29T03:51:40.245Z,1030.75
2019-03-29T03:52:40.260Z,1030.78
2019-03-29T03:53:40.293Z,1030.76
2019-03-29T03:54:40.313Z,1030.79
2019-03-29T03:55:40.337Z,1030.80
2019-03-29T03:56:40.355Z,1030.80
2019-03-29T03:57:40.376Z,1030.81
2019-03-29T03:58:40.417Z,1030.80
2019-03-29T03:59:40.435Z,1030.80
2019-03-29T04:00:40.446Z,1030.83
2019-03-29T04:01:40.478Z,1030.86
2019-03-29T04:02:40.500Z,1030.82
2019-03-29T04:03:40.520Z,1030.83
2019-03-29T04:04:40.545Z,1030.84
2019-03-29T04:05:40.574Z,1030.84
2019-03-29T04:06:40.584Z,1030.81
2019-03-29T04:07:40.614Z,1030.86
2019-03-29T04:08:40.634Z,1030.82
2019-03-29T04:09:49.367Z,1030.82
2019-03-29T04:10:42.309Z,1030.82
2019-03-29T04:11:40.697Z,1030.82
2019-03-29T04:12:40.724Z,1030.85
2019-03-29T04:13:40.746Z,1030.84
2019-03-29T04:14:40.775Z,1030.86
2019-03-29T04:15:40.792Z,1030.88
2019-03-29T04:16:40.806Z,1030.86
2019-03-29T04:17:40.835Z,1030.89
2019-03-29T04:18:40.881Z,1030.89
2019-03-29T04:19:40.884Z,1030.90
2019-03-29T04:20:40.913Z,1030.94
2019-03-29T04:21:40.934Z,1030.90
2019-03-29T04:22:40.951Z,1030.90
2019-03-29T04:23:40.968Z,1030.88
2019-03-29T04:24:40.994Z,1030.87
2019-03-29T04:25:41.020Z,1030.85
2019-03-29T04:26:41.041Z,1030.86
2019-03-29T04:27:41.067Z,1030.85
2019-03-29T04:28:41.142Z,1030.86
2019-03-29T04:29:41.235Z,1030.86
2019-03-29T04:30:41.131Z,1030.85
2019-03-29T04:31:41.162Z,1030.88
2019-03-29T04:32:41.178Z,1030.86
2019-03-29T04:33:41.202Z,1030.89
2019-03-29T04:34:41.227Z,1030.84
2019-03-29T04:35:41.257Z,1030.87
2019-03-29T04:36:41.277Z,1030.84
2019-03-29T04:37:41.389Z,1030.80
2019-03-29T04:38:41.327Z,1030.81
2019-03-29T04:39:41.362Z,1030.79
2019-03-29T04:40:41.359Z,1030.77
2019-03-29T04:41:41.390Z,1030.79
2019-03-29T04:42:41.405Z,1030.77
2019-03-29T04:43:41.431Z,1030.78
2019-03-29T04:44:41.454Z,1030.77
2019-03-29T04:45:41.476Z,1030.79
2019-03-29T04:46:41.514Z,1030.77
2019-03-29T04:47:41.529Z,1030.77
2019-03-29T04:48:41.542Z,1030.77
2019-03-29T04:49:41.566Z,1030.75
2019-03-29T04:50:41.600Z,1030.77
2019-03-29T04:51:41.618Z,1030.74
2019-03-29T04:52:41.638Z,1030.78
2019-03-29T04:53:41.658Z,1030.76
2019-03-29T04:54:41.691Z,1030.76
2019-03-29T04:55:41.699Z,1030.79
2019-03-29T04:56:41.733Z,1030.77
2019-03-29T04:57:41.758Z,1030.77
2019-03-29T04:58:41.769Z,1030.80
2019-03-29T04:59:41.793Z,1030.77
2019-03-29T05:00:41.821Z,1030.75
2019-03-29T05:01:41.841Z,1030.79
2019-03-29T05:02:41.861Z,1030.79
2019-03-29T05:03:41.904Z,1030.78
2019-03-29T05:04:41.908Z,1030.79
2019-03-29T05:05:41.934Z,1030.77
2019-03-29T05:06:41.968Z,1030.77
2019-03-29T05:07:42.054Z,1030.80
2019-03-29T05:08:42.006Z,1030.78
2019-03-29T05:09:42.027Z,1030.78
2019-03-29T05:10:42.057Z,1030.78
2019-03-29T05:11:42.078Z,1030.78
2019-03-29T05:12:42.104Z,1030.78
2019-03-29T05:13:42.112Z,1030.79
2019-03-29T05:14:42.145Z,1030.77
2019-03-29T05:15:42.166Z,1030.78
2019-03-29T05:16:42.186Z,1030.75
2019-03-29T05:17:42.204Z,1030.79
2019-03-29T05:18:42.240Z,1030.75
2019-03-29T05:19:44.673Z,1030.71
2019-03-29T05:20:42.275Z,1030.70
2019-03-29T05:21:42.417Z,1030.73
2019-03-29T05:22:42.326Z,1030.75
2019-03-29T05:23:42.430Z,1030.79
2019-03-29T05:24:42.365Z,1030.78
2019-03-29T05:25:42.402Z,1030.76
2019-03-29T05:26:42.415Z,1030.78
2019-03-29T05:27:42.444Z,1030.81
2019-03-29T05:28:42.464Z,1030.77
2019-03-29T05:29:42.478Z,1030.79
2019-03-29T05:30:42.515Z,1030.84
2019-03-29T05:31:42.536Z,1030.83
2019-03-29T05:32:42.556Z,1030.85
2019-03-29T05:33:42.569Z,1030.84
2019-03-29T05:34:42.599Z,1030.86
2019-03-29T05:35:42.621Z,1030.87
2019-03-29T05:36:42.635Z,1030.88
2019-03-29T05:37:42.665Z,1030.86
2019-03-29T05:38:42.699Z,1030.90
2019-03-29T05:39:42.713Z,1030.91
2019-03-29T05:40:42.746Z,1030.96
2019-03-29T05:41:42.765Z,1030.91
2019-03-29T05:42:42.779Z,1030.94
2019-03-29T05:43:42.807Z,1030.91
2019-03-29T05:44:42.816Z,1030.89
2019-03-29T05:45:42.860Z,1030.91
2019-03-29T05:46:42.869Z,1030.90
2019-03-29T05:47:42.898Z,1030.91
2019-03-29T05:48:42.920Z,1030.97
2019-03-29T05:49:42.940Z,1030.95
2019-03-29T05:50:43.535Z,1030.95
2019-03-29T05:51:43.000Z,1030.91
2019-03-29T05:52:43.258Z,1030.88
2019-03-29T05:53:43.030Z,1030.92
2019-03-29T05:54:43.692Z,1030.91
2019-03-29T05:55:43.072Z,1030.89
2019-03-29T05:56:43.114Z,1030.87
2019-03-29T05:57:43.207Z,1030.86
2019-03-29T05:58:43.158Z,1030.89
2019-03-29T05:59:43.164Z,1030.86
2019-03-29T06:00:43.214Z,1030.89
2019-03-29T06:01:43.213Z,1030.89
2019-03-29T06:02:43.236Z,1030.87
2019-03-29T06:03:43.283Z,1030.86
2019-03-29T06:04:43.293Z,1030.88
2019-03-29T06:05:43.307Z,1030.87
2019-03-29T06:06:43.328Z,1030.88
2019-03-29T06:07:43.349Z,1030.85
2019-03-29T06:08:43.376Z,1030.81
2019-03-29T06:09:43.404Z,1030.86
2019-03-29T06:10:49.420Z,1030.87
2019-03-29T06:11:43.456Z,1030.82
2019-03-29T06:12:43.456Z,1030.83
2019-03-29T06:13:43.487Z,1030.84
2019-03-29T06:14:43.519Z,1030.84
2019-03-29T06:15:43.529Z,1030.80
2019-03-29T06:16:43.633Z,1030.82
2019-03-29T06:17:48.913Z,1030.82
2019-03-29T06:18:43.605Z,1030.82
2019-03-29T06:19:43.625Z,1030.83
2019-03-29T06:20:43.647Z,1030.81
2019-03-29T06:21:43.666Z,1030.86
2019-03-29T06:22:43.709Z,1030.80
2019-03-29T06:23:43.724Z,1030.80
2019-03-29T06:24:43.731Z,1030.82
2019-03-29T06:25:43.765Z,1030.85
2019-03-29T06:26:43.791Z,1030.80
2019-03-29T06:27:43.812Z,1030.83
2019-03-29T06:28:43.821Z,1030.83
2019-03-29T06:29:43.862Z,1030.81
2019-03-29T06:30:43.872Z,1030.81
2019-03-29T06:31:43.904Z,1030.78
2019-03-29T06:32:43.918Z,1030.81
2019-03-29T06:33:44.665Z,1030.78
2019-03-29T06:34:43.988Z,1030.80
2019-03-29T06:35:43.986Z,1030.77
2019-03-29T06:36:44.011Z,1030.75
2019-03-29T06:37:44.031Z,1030.76
2019-03-29T06:38:44.056Z,1030.76
2019-03-29T06:39:44.091Z,1030.78
2019-03-29T06:40:44.098Z,1030.81
2019-03-29T06:41:44.120Z,1030.78
2019-03-29T06:42:44.160Z,1030.77
2019-03-29T06:43:44.174Z,1030.79
2019-03-29T06:44:44.544Z,1030.75
2019-03-29T06:45:48.116Z,1030.75
2019-03-29T06:46:44.236Z,1030.76
2019-03-29T06:47:44.263Z,1030.74
2019-03-29T06:48:44.278Z,1030.78
2019-03-29T06:49:44.307Z,1030.73
2019-03-29T06:50:44.371Z,1030.75
2019-03-29T06:51:44.352Z,1030.74
2019-03-29T06:52:44.381Z,1030.74
2019-03-29T06:53:44.397Z,1030.72
2019-03-29T06:54:44.421Z,1030.71
2019-03-29T06:55:44.450Z,1030.70
2019-03-29T06:56:44.464Z,1030.72
2019-03-29T06:57:44.488Z,1030.70
2019-03-29T06:58:44.514Z,1030.74
2019-03-29T06:59:44.543Z,1030.72
2019-03-29T07:00:46.594Z,1030.76
2019-03-29T07:01:46.452Z,1030.74
2019-03-29T07:02:44.606Z,1030.77
2019-03-29T07:03:44.623Z,1030.74
2019-03-29T07:04:44.652Z,1030.75
2019-03-29T07:05:44.680Z,1030.74
2019-03-29T07:06:44.688Z,1030.78
2019-03-29T07:07:44.782Z,1030.76
2019-03-29T07:08:44.750Z,1030.77
2019-03-29T07:09:44.767Z,1030.78
2019-03-29T07:10:44.797Z,1030.77
2019-03-29T07:11:44.812Z,1030.76
2019-03-29T07:12:44.841Z,1030.76
2019-03-29T07:13:56.720Z,1030.79
2019-03-29T07:14:44.881Z,1030.77
2019-03-29T07:15:44.901Z,1030.76
2019-03-29T07:16:44.924Z,1030.79
2019-03-29T07:17:44.954Z,1030.79
2019-03-29T07:18:44.978Z,1030.83
2019-03-29T07:19:45.009Z,1030.81
2019-03-29T07:20:45.023Z,1030.83
2019-03-29T07:21:45.044Z,1030.85
2019-03-29T07:22:45.070Z,1030.88
2019-03-29T07:23:45.098Z,1030.87
2019-03-29T07:24:45.108Z,1030.86
2019-03-29T07:25:45.135Z,1030.90
2019-03-29T07:26:45.151Z,1030.88
2019-03-29T07:27:52.042Z,1030.91
2019-03-29T07:28:45.203Z,1030.88
2019-03-29T07:29:45.228Z,1030.90
2019-03-29T07:30:45.251Z,1030.91
2019-03-29T07:31:45.276Z,1030.91
2019-03-29T07:32:45.298Z,1030.90
2019-03-29T07:33:45.327Z,1030.88
2019-03-29T07:34:45.348Z,1030.89
2019-03-29T07:35:45.365Z,1030.90
2019-03-29T07:36:45.391Z,1030.95
2019-03-29T07:37:45.416Z,1030.92
2019-03-29T07:38:45.433Z,1030.94
2019-03-29T07:39:45.462Z,1030.89
2019-03-29T07:40:45.478Z,1030.89
2019-03-29T07:41:45.519Z,1030.90
2019-03-29T07:42:45.523Z,1030.91
2019-03-29T07:43:45.550Z,1030.90
2019-03-29T07:44:45.579Z,1030.93
2019-03-29T07:45:45.592Z,1030.92
2019-03-29T07:46:45.650Z,1030.93
2019-03-29T07:47:45.646Z,1030.90
2019-03-29T07:48:45.664Z,1030.90
2019-03-29T07:49:45.692Z,1030.91
2019-03-29T07:50:45.717Z,1030.92
2019-03-29T07:51:45.739Z,1030.90
2019-03-29T07:52:45.765Z,1030.89
2019-03-29T07:53:45.866Z,1030.90
2019-03-29T07:54:45.804Z,1030.89
2019-03-29T07:55:45.839Z,1030.89
2019-03-29T07:56:45.856Z,1030.87
2019-03-29T07:57:45.877Z,1030.88
2019-03-29T07:58:45.898Z,1030.87
2019-03-29T07:59:45.931Z,1030.83
2019-03-29T08:00:45.946Z,1030.86
2019-03-29T08:01:45.970Z,1030.89
2019-03-29T08:02:45.993Z,1030.84
2019-03-29T08:03:46.022Z,1030.84
2019-03-29T08:04:46.609Z,1030.82
2019-03-29T08:05:46.063Z,1030.81
2019-03-29T08:06:46.662Z,1030.81
2019-03-29T08:07:46.110Z,1030.80
2019-03-29T08:08:46.128Z,1030.84
2019-03-29T08:09:46.155Z,1030.84
2019-03-29T08:10:46.180Z,1030.86
2019-03-29T08:11:46.850Z,1030.84
2019-03-29T08:12:46.236Z,1030.81
2019-03-29T08:13:46.244Z,1030.83
2019-03-29T08:14:46.267Z,1030.80
2019-03-29T08:15:46.296Z,1030.78
2019-03-29T08:16:46.311Z,1030.74
2019-03-29T08:17:46.342Z,1030.73
2019-03-29T08:18:46.381Z,1030.72
2019-03-29T08:19:46.387Z,1030.71
2019-03-29T08:20:46.422Z,1030.75
2019-03-29T08:21:46.438Z,1030.72
2019-03-29T08:22:46.459Z,1030.71
2019-03-29T08:23:46.487Z,1030.76
2019-03-29T08:24:46.507Z,1030.73
2019-03-29T08:25:46.527Z,1030.77
2019-03-29T08:26:46.554Z,1030.73
2019-03-29T08:27:46.581Z,1030.77
2019-03-29T08:28:46.594Z,1030.75
2019-03-29T08:29:46.670Z,1030.74
2019-03-29T08:30:46.649Z,1030.75
2019-03-29T08:31:46.670Z,1030.73
2019-03-29T08:32:46.689Z,1030.75
2019-03-29T08:33:46.722Z,1030.79
2019-03-29T08:34:46.743Z,1030.75
2019-03-29T08:35:46.763Z,1030.77
2019-03-29T08:36:46.789Z,1030.76
2019-03-29T08:37:46.821Z,1030.78
2019-03-29T08:38:46.833Z,1030.77
2019-03-29T08:39:46.858Z,1030.79
2019-03-29T08:40:46.879Z,1030.81
2019-03-29T08:41:59.565Z,1030.82
2019-03-29T08:42:46.927Z,1030.82
2019-03-29T08:43:46.949Z,1030.88
2019-03-29T08:44:46.972Z,1030.83
2019-03-29T08:45:46.995Z,1030.85
2019-03-29T08:46:47.020Z,1030.85
2019-03-29T08:47:47.049Z,1030.83
2019-03-29T08:48:47.075Z,1030.85
2019-03-29T08:49:47.091Z,1030.88
2019-03-29T08:50:47.116Z,1030.88
2019-03-29T08:51:47.139Z,1030.86
2019-03-29T08:52:47.159Z,1030.84
2019-03-29T08:53:47.184Z,1030.83
2019-03-29T08:54:47.325Z,1030.83
2019-03-29T08:55:47.237Z,1030.83
2019-03-29T08:56:47.263Z,1030.82
2019-03-29T08:57:47.279Z,1030.86
2019-03-29T08:58:47.300Z,1030.86
2019-03-29T08:59:47.325Z,1030.84
2019-03-29T09:00:47.384Z,1030.85
2019-03-29T09:01:47.375Z,1030.84
2019-03-29T09:02:47.398Z,1030.85
2019-03-29T09:04:02.641Z,1030.82
2019-03-29T09:04:47.442Z,1030.82
2019-03-29T09:05:47.468Z,1030.79
2019-03-29T09:06:53.856Z,1030.81
2019-03-29T09:07:47.517Z,1030.80
2019-03-29T09:08:47.538Z,1030.74
2019-03-29T09:09:47.567Z,1030.76
2019-03-29T09:10:47.587Z,1030.78
2019-03-29T09:11:47.616Z,1030.75
2019-03-29T09:12:47.634Z,1030.75
2019-03-29T09:13:47.658Z,1030.74
2019-03-29T09:14:47.680Z,1030.74
2019-03-29T09:15:47.708Z,1030.79
2019-03-29T09:16:47.730Z,1030.77
2019-03-29T09:17:47.764Z,1030.78
2019-03-29T09:18:47.771Z,1030.75
2019-03-29T09:19:47.797Z,1030.76
2019-03-29T09:20:47.821Z,1030.71
2019-03-29T09:21:47.842Z,1030.74
2019-03-29T09:22:47.869Z,1030.74
2019-03-29T09:23:47.937Z,1030.72
2019-03-29T09:24:47.915Z,1030.74
2019-03-29T09:25:47.937Z,1030.74
2019-03-29T09:26:47.961Z,1030.72
2019-03-29T09:27:48.002Z,1030.76
2019-03-29T09:28:48.008Z,1030.75
2019-03-29T09:29:48.030Z,1030.79
2019-03-29T09:30:48.053Z,1030.72
2019-03-29T09:31:48.084Z,1030.73
2019-03-29T09:32:51.113Z,1030.73
2019-03-29T09:33:48.133Z,1030.72
2019-03-29T09:34:48.154Z,1030.72
2019-03-29T09:35:48.170Z,1030.75
2019-03-29T09:36:48.200Z,1030.72
2019-03-29T09:37:48.224Z,1030.74
2019-03-29T09:38:48.249Z,1030.75
2019-03-29T09:39:48.279Z,1030.74
2019-03-29T09:40:58.370Z,1030.75
2019-03-29T09:41:48.345Z,1030.78
2019-03-29T09:42:50.792Z,1030.78
2019-03-29T09:43:48.373Z,1030.74
2019-03-29T09:44:48.382Z,1030.75
2019-03-29T09:45:48.415Z,1030.75
2019-03-29T09:46:48.432Z,1030.79
2019-03-29T09:47:48.461Z,1030.74
2019-03-29T09:48:48.546Z,1030.75
2019-03-29T09:49:48.506Z,1030.73
2019-03-29T09:50:50.741Z,1030.72
2019-03-29T09:51:48.563Z,1030.73
2019-03-29T09:52:51.264Z,1030.70
2019-03-29T09:53:48.611Z,1030.66
2019-03-29T09:54:48.620Z,1030.68
2019-03-29T09:55:48.663Z,1030.66
2019-03-29T09:56:48.680Z,1030.62
2019-03-29T09:57:48.696Z,1030.63
2019-03-29T09:58:48.718Z,1030.65
2019-03-29T09:59:48.741Z,1030.66
2019-03-29T10:00:48.765Z,1030.62
2019-03-29T10:01:48.792Z,1030.65
2019-03-29T10:02:48.814Z,1030.61
2019-03-29T10:03:48.834Z,1030.59
2019-03-29T10:04:48.857Z,1030.62
2019-03-29T10:05:48.885Z,1030.59
2019-03-29T10:06:48.908Z,1030.60
2019-03-29T10:07:48.943Z,1030.59
2019-03-29T10:08:48.951Z,1030.60
2019-03-29T10:09:48.973Z,1030.59
2019-03-29T10:10:49.005Z,1030.59
2019-03-29T10:11:49.039Z,1030.58
2019-03-29T10:12:49.047Z,1030.58
2019-03-29T10:13:49.082Z,1030.59
2019-03-29T10:14:49.096Z,1030.56
2019-03-29T10:15:51.339Z,1030.57
2019-03-29T10:16:49.150Z,1030.57
2019-03-29T10:17:49.160Z,1030.58
2019-03-29T10:18:49.188Z,1030.60
2019-03-29T10:19:50.011Z,1030.55
2019-03-29T10:20:49.236Z,1030.56
2019-03-29T10:21:49.258Z,1030.58
2019-03-29T10:22:49.280Z,1030.55
2019-03-29T10:23:49.304Z,1030.54
2019-03-29T10:24:49.332Z,1030.53
2019-03-29T10:25:49.352Z,1030.55
2019-03-29T10:26:49.390Z,1030.53
2019-03-29T10:27:49.400Z,1030.53
2019-03-29T10:28:49.431Z,1030.55
2019-03-29T10:29:49.449Z,1030.56
2019-03-29T10:30:49.463Z,1030.52
2019-03-29T10:31:49.498Z,1030.54
2019-03-29T10:32:49.514Z,1030.55
2019-03-29T10:33:49.552Z,1030.53
2019-03-29T10:34:49.568Z,1030.48
2019-03-29T10:35:52.654Z,1030.44
2019-03-29T10:36:49.608Z,1030.41
2019-03-29T10:37:49.637Z,1030.41
2019-03-29T10:38:49.662Z,1030.38
2019-03-29T10:39:49.675Z,1030.38
2019-03-29T10:40:49.714Z,1030.36
2019-03-29T10:41:49.736Z,1030.34
2019-03-29T10:42:57.712Z,1030.36
2019-03-29T10:43:49.778Z,1030.31
2019-03-29T10:44:49.801Z,1030.27
2019-03-29T10:45:49.823Z,1030.27
2019-03-29T10:46:49.854Z,1030.28
2019-03-29T10:47:49.868Z,1030.27
2019-03-29T10:48:49.930Z,1030.25
2019-03-29T10:49:49.925Z,1030.23
2019-03-29T10:50:49.940Z,1030.21
2019-03-29T10:51:49.970Z,1030.20
2019-03-29T10:52:49.988Z,1030.22
2019-03-29T10:53:50.012Z,1030.20
2019-03-29T10:54:50.184Z,1030.18
2019-03-29T10:55:50.067Z,1030.16
2019-03-29T10:56:50.089Z,1030.13
2019-03-29T10:57:50.119Z,1030.16
2019-03-29T10:58:50.134Z,1030.13
2019-03-29T10:59:50.156Z,1030.12
2019-03-29T11:00:50.183Z,1030.10
2019-03-29T11:01:50.221Z,1030.10
2019-03-29T11:02:50.239Z,1030.13
2019-03-29T11:03:50.270Z,1030.13
2019-03-29T11:04:50.277Z,1030.13
2019-03-29T11:05:50.304Z,1030.14
2019-03-29T11:06:50.332Z,1030.10
2019-03-29T11:07:50.354Z,1030.11
2019-03-29T11:08:50.376Z,1030.11
2019-03-29T11:09:50.396Z,1030.11
2019-03-29T11:10:50.428Z,1030.03
2019-03-29T11:11:50.454Z,1030.01
2019-03-29T11:12:50.463Z,1030.08
2019-03-29T11:13:50.488Z,1029.98
2019-03-29T11:14:50.513Z,1030.03
2019-03-29T11:15:50.539Z,1029.96
2019-03-29T11:16:50.561Z,1030.00
2019-03-29T11:17:50.589Z,1029.93
2019-03-29T11:18:50.616Z,1029.92
2019-03-29T11:19:50.641Z,1029.93
2019-03-29T11:20:50.658Z,1029.84
2019-03-29T11:21:50.695Z,1029.86
2019-03-29T11:22:50.706Z,1029.87
2019-03-29T11:23:50.735Z,1029.85
2019-03-29T11:24:50.760Z,1029.88
2019-03-29T11:25:50.779Z,1029.87
2019-03-29T11:26:50.813Z,1029.86
2019-03-29T11:27:50.829Z,1029.84
2019-03-29T11:28:50.851Z,1029.81
2019-03-29T11:29:50.887Z,1029.76
2019-03-29T11:30:50.907Z,1029.80
2019-03-29T11:31:51.012Z,1029.81
2019-03-29T11:32:50.948Z,1029.80
2019-03-29T11:33:50.972Z,1029.80
2019-03-29T11:34:50.993Z,1029.82
2019-03-29T11:35:51.028Z,1029.83
2019-03-29T11:36:52.825Z,1029.80
2019-03-29T11:37:51.073Z,1029.80
2019-03-29T11:38:51.094Z,1029.79
2019-03-29T11:39:51.118Z,1029.78
2019-03-29T11:40:51.140Z,1029.75
2019-03-29T11:41:51.160Z,1029.71
2019-03-29T11:42:51.200Z,1029.70
2019-03-29T11:43:51.211Z,1029.67
2019-03-29T11:44:51.239Z,1029.69
2019-03-29T11:45:51.257Z,1029.68
2019-03-29T11:46:51.292Z,1029.71
2019-03-29T11:47:51.303Z,1029.71
2019-03-29T11:48:51.334Z,1029.63
2019-03-29T11:49:52.841Z,1029.69
2019-03-29T11:50:51.394Z,1029.66
2019-03-29T11:51:51.410Z,1029.66
2019-03-29T11:52:51.424Z,1029.62
2019-03-29T11:53:51.587Z,1029.68
2019-03-29T11:54:51.472Z,1029.62
2019-03-29T11:55:51.499Z,1029.62
2019-03-29T11:56:51.533Z,1029.60
2019-03-29T11:57:51.544Z,1029.57
2019-03-29T11:58:51.580Z,1029.57
2019-03-29T11:59:51.595Z,1029.56
2019-03-29T12:00:51.614Z,1029.56
2019-03-29T12:01:51.646Z,1029.55
2019-03-29T12:02:51.688Z,1029.51
2019-03-29T12:03:51.710Z,1029.52
2019-03-29T12:04:51.739Z,1029.47
2019-03-29T12:05:51.742Z,1029.51
2019-03-29T12:06:51.819Z,1029.53